createdAt,value
2022-09-28T00:00:03.462Z,70.8571
2022-09-28T00:01:03.485Z,70.8571
2022-09-28T00:02:03.712Z,70.8571
2022-09-28T00:03:03.629Z,70.7857
2022-09-28T00:04:03.601Z,70.7857
2022-09-28T00:05:03.611Z,70.8571
2022-09-28T00:06:03.650Z,70.8571
2022-09-28T00:07:03.688Z,70.8571
2022-09-28T00:08:03.719Z,70.8571
2022-09-28T00:09:03.756Z,70.8571
2022-09-28T00:10:03.794Z,70.9286
2022-09-28T00:11:03.830Z,70.9286
2022-09-28T00:12:03.881Z,70.9286
2022-09-28T00:13:03.921Z,70.9286
2022-09-28T00:14:03.933Z,70.8571
2022-09-28T00:15:03.989Z,70.9286
2022-09-28T00:16:04.059Z,70.9286
2022-09-28T00:17:04.029Z,70.9286
2022-09-28T00:18:04.085Z,70.9286
2022-09-28T00:19:04.105Z,70.8571
2022-09-28T00:20:04.133Z,70.8571
2022-09-28T00:21:04.171Z,70.9286
2022-09-28T00:22:04.203Z,70.9286
2022-09-28T00:23:04.262Z,70.9286
2022-09-28T00:24:04.266Z,70.9286
2022-09-28T00:25:04.301Z,70.8571
2022-09-28T00:26:04.330Z,70.7857
2022-09-28T00:27:04.358Z,70.7857
2022-09-28T00:28:04.429Z,70.7857
2022-09-28T00:29:04.437Z,70.7857
2022-09-28T00:30:04.489Z,70.7143
2022-09-28T00:31:04.591Z,70.7857
2022-09-28T00:32:04.550Z,70.7857
2022-09-28T00:33:04.605Z,70.7857
2022-09-28T00:34:04.617Z,70.8571
2022-09-28T00:35:04.652Z,70.8571
2022-09-28T00:36:04.683Z,70.9286
2022-09-28T00:37:04.721Z,70.9286
2022-09-28T00:38:04.778Z,70.9286
2022-09-28T00:39:04.792Z,70.9286
2022-09-28T00:40:04.844Z,71
2022-09-28T00:41:04.861Z,70.9286
2022-09-28T00:42:04.901Z,70.8571
2022-09-28T00:43:04.930Z,70.9286
2022-09-28T00:44:04.972Z,71
2022-09-28T00:45:05.024Z,71
2022-09-28T00:46:05.097Z,71
2022-09-28T00:47:05.064Z,70.9286
2022-09-28T00:48:05.089Z,70.9286
2022-09-28T00:49:05.117Z,70.7857
2022-09-28T00:50:05.214Z,70.7143
2022-09-28T00:51:05.210Z,70.6429
2022-09-28T00:52:05.227Z,70.5714
2022-09-28T00:53:05.267Z,70.5714
2022-09-28T00:54:05.303Z,70.5714
2022-09-28T00:55:05.355Z,70.5714
2022-09-28T00:56:05.371Z,70.5714
2022-09-28T00:57:05.404Z,70.5714
2022-09-28T00:58:05.440Z,70.5
2022-09-28T00:59:05.481Z,70.5
2022-09-28T01:00:05.534Z,70.5
2022-09-28T01:01:05.609Z,70.5
2022-09-28T01:02:05.684Z,70.5
2022-09-28T01:03:05.612Z,70.4286
2022-09-28T01:04:05.664Z,70.4286
2022-09-28T01:05:05.680Z,70.5714
2022-09-28T01:06:05.745Z,70.5714
2022-09-28T01:07:05.755Z,70.5714
2022-09-28T01:08:05.781Z,70.5714
2022-09-28T01:09:05.816Z,70.6429
2022-09-28T01:10:05.893Z,70.7143
2022-09-28T01:11:05.892Z,70.7143
2022-09-28T01:12:05.979Z,70.7857
2022-09-28T01:13:05.955Z,70.7857
2022-09-28T01:14:05.995Z,70.7857
2022-09-28T01:15:06.024Z,70.7857
2022-09-28T01:16:06.101Z,70.7857
2022-09-28T01:17:06.096Z,70.7857
2022-09-28T01:18:06.122Z,70.8571
2022-09-28T01:19:06.161Z,70.8571
2022-09-28T01:20:06.225Z,70.8571
2022-09-28T01:21:06.231Z,70.9286
2022-09-28T01:22:06.270Z,70.9286
2022-09-28T01:23:06.304Z,70.9286
2022-09-28T01:24:06.371Z,70.9286
2022-09-28T01:25:06.371Z,70.9286
2022-09-28T01:26:06.398Z,70.9286
2022-09-28T01:27:06.460Z,70.9286
2022-09-28T01:28:06.489Z,70.8571
2022-09-28T01:29:06.500Z,70.8571
2022-09-28T01:30:06.532Z,70.8571
2022-09-28T01:31:06.565Z,70.8571
2022-09-28T01:32:06.606Z,70.8571
2022-09-28T01:33:06.664Z,70.9286
2022-09-28T01:34:06.681Z,70.9286
2022-09-28T01:35:06.718Z,70.8571
2022-09-28T01:36:06.753Z,70.8571
2022-09-28T01:37:06.818Z,70.8571
2022-09-28T01:38:06.837Z,70.8571
2022-09-28T01:39:06.862Z,70.7857
2022-09-28T01:40:06.886Z,70.7857
2022-09-28T01:41:06.940Z,70.7857
2022-09-28T01:42:06.982Z,70.7143
2022-09-28T01:43:06.989Z,70.7143
2022-09-28T01:44:07.033Z,70.7143
2022-09-28T01:45:07.088Z,70.6429
2022-09-28T01:46:07.308Z,70.6429
2022-09-28T01:47:07.144Z,70.6429
2022-09-28T01:48:07.195Z,70.5714
2022-09-28T01:49:07.209Z,70.5714
2022-09-28T01:50:07.270Z,70.5714
2022-09-28T01:51:07.278Z,70.5
2022-09-28T01:52:07.301Z,70.5
2022-09-28T01:53:07.330Z,70.3571
2022-09-28T01:54:07.362Z,70.4286
2022-09-28T01:55:07.419Z,70.2857
2022-09-28T01:56:07.435Z,70.2857
2022-09-28T01:57:07.497Z,70.2857
2022-09-28T01:58:07.510Z,70.2857
2022-09-28T01:59:07.535Z,70.2857
2022-09-28T02:00:07.590Z,70.2857
2022-09-28T02:01:07.681Z,70.2857
2022-09-28T02:02:07.734Z,70.2857
2022-09-28T02:03:07.663Z,70.3571
2022-09-28T02:04:07.701Z,70.4286
2022-09-28T02:05:07.749Z,70.3571
2022-09-28T02:06:07.756Z,70.2857
2022-09-28T02:07:07.792Z,70.3571
2022-09-28T02:08:07.841Z,70.3571
2022-09-28T02:09:07.860Z,70.3571
2022-09-28T02:10:07.891Z,70.3571
2022-09-28T02:11:07.926Z,70.3571
2022-09-28T02:12:07.956Z,70.3571
2022-09-28T02:13:08.014Z,70.3571
2022-09-28T02:14:08.052Z,70.2143
2022-09-28T02:15:08.064Z,70.1429
2022-09-28T02:16:08.176Z,70.2143
2022-09-28T02:17:08.149Z,70.2857
2022-09-28T02:18:08.161Z,70.2857
2022-09-28T02:19:08.197Z,70.3571
2022-09-28T02:20:08.232Z,70.2857
2022-09-28T02:21:08.292Z,70.2857
2022-09-28T02:22:08.306Z,70.2143
2022-09-28T02:23:08.368Z,70.2857
2022-09-28T02:24:08.375Z,70.2143
2022-09-28T02:25:08.411Z,70.1429
2022-09-28T02:26:08.473Z,70.2143
2022-09-28T02:27:08.480Z,70.2857
2022-09-28T02:28:08.507Z,70.3571
2022-09-28T02:29:08.553Z,70.2143
2022-09-28T02:30:08.614Z,70.2143
2022-09-28T02:31:08.672Z,70.2143
2022-09-28T02:32:08.653Z,70.2143
2022-09-28T02:33:08.711Z,70.0714
2022-09-28T02:34:08.712Z,70.0714
2022-09-28T02:35:08.767Z,70.1429
2022-09-28T02:36:08.767Z,70.0714
2022-09-28T02:37:08.801Z,70.1429
2022-09-28T02:38:08.832Z,70.1429
2022-09-28T02:39:08.862Z,70.1429
2022-09-28T02:40:08.929Z,70.2143
2022-09-28T02:41:08.944Z,70.2143
2022-09-28T02:42:08.974Z,70.1429
2022-09-28T02:43:09.027Z,70.2143
2022-09-28T02:44:09.076Z,70.2143
2022-09-28T02:45:09.087Z,70.1429
2022-09-28T02:46:09.180Z,70.1429
2022-09-28T02:47:09.151Z,70.2143
2022-09-28T02:48:09.188Z,70.2143
2022-09-28T02:49:21.378Z,70.1429
2022-09-28T02:50:09.250Z,70.2143
2022-09-28T02:51:09.287Z,70.2143
2022-09-28T02:52:09.325Z,70.2857
2022-09-28T02:53:09.375Z,70.3571
2022-09-28T02:54:09.395Z,70.4286
2022-09-28T02:55:09.429Z,70.5
2022-09-28T02:56:09.482Z,70.5
2022-09-28T02:57:09.481Z,70.5
2022-09-28T02:58:09.521Z,70.4286
2022-09-28T02:59:09.559Z,70.4286
2022-09-28T03:00:09.591Z,70.5
2022-09-28T03:01:09.684Z,70.5714
2022-09-28T03:02:09.830Z,70.5714
2022-09-28T03:03:09.692Z,70.5
2022-09-28T03:04:09.733Z,70.5714
2022-09-28T03:05:09.781Z,70.6429
2022-09-28T03:06:09.801Z,70.6429
2022-09-28T03:07:09.864Z,70.6429
2022-09-28T03:08:09.867Z,70.5714
2022-09-28T03:09:09.951Z,70.5714
2022-09-28T03:10:09.943Z,70.5714
2022-09-28T03:11:09.970Z,70.5714
2022-09-28T03:12:10.020Z,70.5714
2022-09-28T03:13:10.030Z,70.6429
2022-09-28T03:14:10.066Z,70.6429
2022-09-28T03:15:10.095Z,70.6429
2022-09-28T03:16:10.159Z,70.6429
2022-09-28T03:17:10.179Z,70.6429
2022-09-28T03:18:10.186Z,70.6429
2022-09-28T03:19:10.235Z,70.6429
2022-09-28T03:20:10.250Z,70.5714
2022-09-28T03:21:10.314Z,70.5714
2022-09-28T03:22:10.317Z,70.5714
2022-09-28T03:23:24.341Z,70.5
2022-09-28T03:24:10.391Z,70.5
2022-09-28T03:25:10.432Z,70.4286
2022-09-28T03:26:10.488Z,70.5714
2022-09-28T03:27:10.499Z,70.6429
2022-09-28T03:28:10.540Z,70.7143
2022-09-28T03:29:10.642Z,70.7143
2022-09-28T03:30:10.625Z,70.7143
2022-09-28T03:31:10.760Z,70.6429
2022-09-28T03:32:10.714Z,70.6429
2022-09-28T03:33:10.730Z,70.5714
2022-09-28T03:34:10.766Z,70.6429
2022-09-28T03:35:10.801Z,70.6429
2022-09-28T03:36:10.836Z,70.6429
2022-09-28T03:37:10.894Z,70.5714
2022-09-28T03:38:10.903Z,70.5714
2022-09-28T03:39:11.023Z,70.5714
2022-09-28T03:40:10.969Z,70.6429
2022-09-28T03:41:10.992Z,70.7857
2022-09-28T03:42:11.046Z,70.7857
2022-09-28T03:43:11.067Z,70.7857
2022-09-28T03:44:11.098Z,70.7857
2022-09-28T03:45:11.141Z,70.7857
2022-09-28T03:46:11.231Z,70.8571
2022-09-28T03:47:11.205Z,70.7857
2022-09-28T03:48:11.239Z,70.7857
2022-09-28T03:49:11.271Z,70.7857
2022-09-28T03:50:11.301Z,70.7857
2022-09-28T03:51:11.357Z,70.7143
2022-09-28T03:52:11.370Z,70.7143
2022-09-28T03:53:11.396Z,70.7143
2022-09-28T03:54:11.432Z,70.7143
2022-09-28T03:55:11.473Z,70.7143
2022-09-28T03:56:11.523Z,70.6429
2022-09-28T03:57:11.536Z,70.5714
2022-09-28T03:58:11.573Z,70.5714
2022-09-28T03:59:11.606Z,70.5
2022-09-28T04:00:11.644Z,70.4286
2022-09-28T04:01:16.635Z,70.4286
2022-09-28T04:02:11.803Z,70.4286
2022-09-28T04:03:11.751Z,70.4286
2022-09-28T04:04:11.803Z,70.5
2022-09-28T04:05:11.812Z,70.5714
2022-09-28T04:06:11.849Z,70.5714
2022-09-28T04:07:11.877Z,70.6429
2022-09-28T04:08:11.917Z,70.7143
2022-09-28T04:09:11.949Z,70.7857
2022-09-28T04:10:11.982Z,70.7857
2022-09-28T04:11:12.015Z,70.7857
2022-09-28T04:12:12.050Z,70.8571
2022-09-28T04:13:12.083Z,70.8571
2022-09-28T04:14:12.112Z,70.9286
2022-09-28T04:15:12.147Z,71
2022-09-28T04:16:12.259Z,71
2022-09-28T04:17:12.219Z,71.0714
2022-09-28T04:18:12.264Z,71.0714
2022-09-28T04:19:12.325Z,71.2143
2022-09-28T04:20:12.339Z,71.2857
2022-09-28T04:21:12.365Z,71.3571
2022-09-28T04:22:12.416Z,71.3571
2022-09-28T04:23:12.450Z,71.3571
2022-09-28T04:24:12.473Z,71.3571
2022-09-28T04:25:12.492Z,71.4286
2022-09-28T04:26:12.553Z,71.4286
2022-09-28T04:27:12.566Z,71.5
2022-09-28T04:28:12.613Z,71.5
2022-09-28T04:29:12.797Z,71.5
2022-09-28T04:30:12.690Z,71.5
2022-09-28T04:31:12.746Z,71.4286
2022-09-28T04:32:12.731Z,71.4286
2022-09-28T04:33:12.770Z,71.4286
2022-09-28T04:34:12.807Z,71.5
2022-09-28T04:35:12.836Z,71.5
2022-09-28T04:36:12.867Z,71.5
2022-09-28T04:37:12.905Z,71.4286
2022-09-28T04:38:12.943Z,71.3571
2022-09-28T04:39:13.066Z,71.3571
2022-09-28T04:40:13.014Z,71.2857
2022-09-28T04:41:13.049Z,71.2143
2022-09-28T04:42:13.085Z,71.2143
2022-09-28T04:43:13.121Z,71.2143
2022-09-28T04:44:13.154Z,71.2143
2022-09-28T04:45:13.190Z,71.1429
2022-09-28T04:46:13.292Z,71.0714
2022-09-28T04:47:13.258Z,70.9286
2022-09-28T04:48:13.291Z,71
2022-09-28T04:49:13.398Z,70.9286
2022-09-28T04:50:13.353Z,70.8571
2022-09-28T04:51:13.390Z,71
2022-09-28T04:52:18.081Z,71.0714
2022-09-28T04:53:13.455Z,71.2143
2022-09-28T04:54:13.497Z,71.3571
2022-09-28T04:55:13.518Z,71.4286
2022-09-28T04:56:13.584Z,71.5
2022-09-28T04:57:13.599Z,71.5
2022-09-28T04:58:13.630Z,71.4286
2022-09-28T04:59:13.737Z,71.4286
2022-09-28T05:00:13.700Z,71.3571
2022-09-28T05:01:13.792Z,71.3571
2022-09-28T05:02:13.891Z,71.2857
2022-09-28T05:03:13.806Z,71.2857
2022-09-28T05:04:13.837Z,71.2857
2022-09-28T05:05:13.880Z,71.2857
2022-09-28T05:06:13.913Z,71.2143
2022-09-28T05:07:13.944Z,71.2143
2022-09-28T05:08:13.979Z,71.2857
2022-09-28T05:09:14.095Z,71.2857
2022-09-28T05:10:14.045Z,71.2143
2022-09-28T05:11:14.079Z,71.2143
2022-09-28T05:12:14.105Z,71.2143
2022-09-28T05:13:14.134Z,71.1429
2022-09-28T05:14:14.170Z,71.2143
2022-09-28T05:15:14.208Z,71.2143
2022-09-28T05:16:14.401Z,71.2857
2022-09-28T05:17:14.282Z,71.1429
2022-09-28T05:18:14.322Z,71.1429
2022-09-28T05:19:14.569Z,71.1429
2022-09-28T05:20:14.373Z,71.2143
2022-09-28T05:21:14.414Z,71.2857
2022-09-28T05:22:14.443Z,71.2857
2022-09-28T05:23:14.478Z,71.2143
2022-09-28T05:24:14.503Z,71.1429
2022-09-28T05:25:14.535Z,71.2143
2022-09-28T05:26:14.568Z,71.2143
2022-09-28T05:27:14.597Z,71.2857
2022-09-28T05:28:14.631Z,71.3571
2022-09-28T05:29:14.810Z,71.4286
2022-09-28T05:30:14.708Z,71.4286
2022-09-28T05:31:14.925Z,71.4286
2022-09-28T05:32:14.782Z,71.2143
2022-09-28T05:33:14.812Z,71.0714
2022-09-28T05:34:14.842Z,71
2022-09-28T05:35:14.872Z,71
2022-09-28T05:36:14.901Z,70.9286
2022-09-28T05:37:14.929Z,70.9286
2022-09-28T05:38:14.962Z,70.9286
2022-09-28T05:39:15.039Z,70.8571
2022-09-28T05:40:15.241Z,70.7857
2022-09-28T05:41:15.067Z,70.7857
2022-09-28T05:42:15.098Z,70.7143
2022-09-28T05:43:15.124Z,70.6429
2022-09-28T05:44:15.327Z,70.7143
2022-09-28T05:45:15.192Z,70.6429
2022-09-28T05:46:15.276Z,70.7143
2022-09-28T05:47:15.258Z,70.7857
2022-09-28T05:48:15.292Z,70.7857
2022-09-28T05:49:15.317Z,70.8571
2022-09-28T05:50:15.355Z,70.8571
2022-09-28T05:51:15.383Z,70.9286
2022-09-28T05:52:15.416Z,71
2022-09-28T05:53:15.446Z,71
2022-09-28T05:54:15.544Z,71
2022-09-28T05:55:15.521Z,71
2022-09-28T05:56:15.556Z,70.8571
2022-09-28T05:57:15.587Z,70.8571
2022-09-28T05:58:15.626Z,70.7857
2022-09-28T05:59:15.657Z,70.8571
2022-09-28T06:00:15.688Z,70.8571
2022-09-28T06:01:15.805Z,70.8571
2022-09-28T06:02:15.821Z,70.8571
2022-09-28T06:03:15.795Z,70.7857
2022-09-28T06:04:15.896Z,70.7143
2022-09-28T06:05:15.861Z,70.7143
2022-09-28T06:06:15.895Z,70.6429
2022-09-28T06:07:15.928Z,70.6429
2022-09-28T06:08:15.961Z,70.5714
2022-09-28T06:09:15.979Z,70.4286
2022-09-28T06:10:16.012Z,70.3571
2022-09-28T06:11:16.044Z,70.2857
2022-09-28T06:12:16.076Z,70.0714
2022-09-28T06:13:16.109Z,70
2022-09-28T06:14:16.129Z,69.8571
2022-09-28T06:15:16.167Z,69.8571
2022-09-28T06:16:16.230Z,69.8571
2022-09-28T06:17:16.229Z,69.8571
2022-09-28T06:18:16.249Z,69.9286
2022-09-28T06:19:16.287Z,69.9286
2022-09-28T06:20:16.325Z,69.9286
2022-09-28T06:21:16.358Z,70
2022-09-28T06:22:16.393Z,69.8571
2022-09-28T06:23:16.434Z,69.7857
2022-09-28T06:24:16.459Z,69.6429
2022-09-28T06:25:16.494Z,69.5714
2022-09-28T06:26:16.521Z,69.5714
2022-09-28T06:27:16.563Z,69.6429
2022-09-28T06:28:16.591Z,69.5
2022-09-28T06:29:19.461Z,69.5
2022-09-28T06:30:16.654Z,69.6429
2022-09-28T06:31:16.716Z,69.7143
2022-09-28T06:32:16.716Z,69.8571
2022-09-28T06:33:16.757Z,69.9286
2022-09-28T06:34:16.944Z,69.9286
2022-09-28T06:35:16.816Z,70
2022-09-28T06:36:16.853Z,70.0714
2022-09-28T06:37:16.882Z,70
2022-09-28T06:38:16.917Z,69.8571
2022-09-28T06:39:16.948Z,69.7857
2022-09-28T06:40:17.053Z,69.6429
2022-09-28T06:41:17.015Z,69.5714
2022-09-28T06:42:17.043Z,69.3571
2022-09-28T06:43:17.085Z,69.2857
2022-09-28T06:44:17.271Z,69.0714
2022-09-28T06:45:17.152Z,68.9286
2022-09-28T06:46:17.286Z,68.4286
2022-09-28T06:47:17.209Z,68.2143
2022-09-28T06:48:17.244Z,68.0714
2022-09-28T06:49:19.467Z,68.0714
2022-09-28T06:50:17.320Z,68.1429
2022-09-28T06:51:17.377Z,68.2143
2022-09-28T06:52:17.388Z,68.2857
2022-09-28T06:53:17.423Z,68.2143
2022-09-28T06:54:17.593Z,68.2143
2022-09-28T06:55:17.490Z,68.2857
2022-09-28T06:56:17.530Z,68.2857
2022-09-28T06:57:17.554Z,68.1429
2022-09-28T06:58:17.589Z,68
2022-09-28T06:59:17.624Z,68.1429
2022-09-28T07:00:17.665Z,68.1429
2022-09-28T07:01:17.743Z,68.0714
2022-09-28T07:02:17.775Z,68.2143
2022-09-28T07:03:17.775Z,68.0714
2022-09-28T07:04:17.927Z,68
2022-09-28T07:05:17.839Z,67.9286
2022-09-28T07:06:17.876Z,67.9286
2022-09-28T07:07:17.913Z,67.9286
2022-09-28T07:08:17.953Z,67.8571
2022-09-28T07:09:30.716Z,67.7143
2022-09-28T07:10:18.007Z,67.7143
2022-09-28T07:11:18.046Z,67.7143
2022-09-28T07:12:18.076Z,67.8571
2022-09-28T07:13:43.897Z,67.9286
2022-09-28T07:14:31.582Z,67.8571
2022-09-28T07:15:18.175Z,67.7857
2022-09-28T07:16:21.567Z,67.8571
2022-09-28T07:17:18.291Z,67.8571
2022-09-28T07:18:18.347Z,68.0714
2022-09-28T07:19:18.312Z,68.3571
2022-09-28T07:20:19.418Z,68.6429
2022-09-28T07:21:25.916Z,68.7857
2022-09-28T07:22:20.453Z,68.8571
2022-09-28T07:23:19.645Z,68.7857
2022-09-28T07:24:18.561Z,68.7857
2022-09-28T07:25:18.529Z,68.7857
2022-09-28T07:26:22.481Z,68.8571
2022-09-28T07:27:18.599Z,69
2022-09-28T07:28:18.629Z,69.0714
2022-09-28T07:29:18.659Z,69.2143
2022-09-28T07:30:18.699Z,69.2857
2022-09-28T07:31:18.813Z,69.2143
2022-09-28T07:32:18.793Z,69.1429
2022-09-28T07:33:18.789Z,69.1429
2022-09-28T07:34:19.038Z,69.0714
2022-09-28T07:35:18.863Z,68.9286
2022-09-28T07:36:18.897Z,68.9286
2022-09-28T07:37:18.950Z,68.8571
2022-09-28T07:38:18.968Z,68.7143
2022-09-28T07:39:19.007Z,68.7143
2022-09-28T07:40:19.077Z,68.7143
2022-09-28T07:41:19.071Z,68.8571
2022-09-28T07:42:19.120Z,68.8571
2022-09-28T07:43:19.128Z,69.0714
2022-09-28T07:44:19.305Z,69.2143
2022-09-28T07:45:19.190Z,69.2143
2022-09-28T07:46:19.298Z,69.1429
2022-09-28T07:47:19.263Z,69.2143
2022-09-28T07:48:19.298Z,69.2143
2022-09-28T07:49:19.519Z,69.1429
2022-09-28T07:50:19.372Z,69.0714
2022-09-28T07:51:19.393Z,69.0714
2022-09-28T07:52:19.434Z,68.8571
2022-09-28T07:53:19.454Z,68.6429
2022-09-28T07:54:19.493Z,68.6429
2022-09-28T07:55:19.527Z,68.7143
2022-09-28T07:56:19.556Z,68.8571
2022-09-28T07:57:19.592Z,69
2022-09-28T07:58:19.625Z,69.1429
2022-09-28T07:59:19.664Z,69.2143
2022-09-28T08:00:19.706Z,69.0714
2022-09-28T08:01:19.802Z,68.5714
2022-09-28T08:02:19.873Z,68.2143
2022-09-28T08:03:19.809Z,68.0714
2022-09-28T08:04:19.838Z,67.6429
2022-09-28T08:05:19.872Z,67.8571
2022-09-28T08:06:19.916Z,68.2143
2022-09-28T08:07:23.675Z,68.2857
2022-09-28T08:08:19.981Z,68
2022-09-28T08:09:20.009Z,67.7857
2022-09-28T08:10:20.044Z,67.2857
2022-09-28T08:11:20.078Z,67.3571
2022-09-28T08:12:20.103Z,67.2857
2022-09-28T08:13:22.240Z,66.8571
2022-09-28T08:14:20.176Z,66.5714
2022-09-28T08:15:20.214Z,66.4286
2022-09-28T08:16:20.350Z,66.2857
2022-09-28T08:17:20.291Z,66.5
2022-09-28T08:18:20.319Z,66.7857
2022-09-28T08:19:20.352Z,66.7857
2022-09-28T08:20:20.383Z,67
2022-09-28T08:21:20.417Z,67.0714
2022-09-28T08:22:20.442Z,66.9286
2022-09-28T08:23:20.521Z,67
2022-09-28T08:24:20.508Z,67.0714
2022-09-28T08:25:20.542Z,67
2022-09-28T08:26:20.576Z,66.6429
2022-09-28T08:27:20.612Z,66.1429
2022-09-28T08:28:20.645Z,66.0714
2022-09-28T08:29:20.677Z,66.0714
2022-09-28T08:30:20.710Z,65.9286
2022-09-28T08:31:20.846Z,65.8571
2022-09-28T08:32:20.768Z,65.6429
2022-09-28T08:33:20.799Z,65.4286
2022-09-28T08:34:20.836Z,64.8571
2022-09-28T08:35:20.861Z,64.9286
2022-09-28T08:36:20.901Z,65.1429
2022-09-28T08:37:20.949Z,65.2857
2022-09-28T08:38:20.968Z,65.2143
2022-09-28T08:39:21.006Z,64.9286
2022-09-28T08:40:21.085Z,64.6429
2022-09-28T08:41:21.077Z,64.0714
2022-09-28T08:42:21.114Z,64
2022-09-28T08:43:21.154Z,64.5
2022-09-28T08:44:21.186Z,64.5
2022-09-28T08:45:22.809Z,64.6429
2022-09-28T08:46:23.888Z,64.2857
2022-09-28T08:47:21.287Z,64.2857
2022-09-28T08:48:21.315Z,64.6429
2022-09-28T08:49:25.533Z,64.2857
2022-09-28T08:50:21.403Z,64.4286
2022-09-28T08:51:21.409Z,64.3571
2022-09-28T08:52:21.681Z,64.2143
2022-09-28T08:53:21.478Z,64.2143
2022-09-28T08:54:21.506Z,64
2022-09-28T08:55:21.539Z,63.7857
2022-09-28T08:56:21.574Z,63.7143
2022-09-28T08:57:21.605Z,63.0714
2022-09-28T08:58:21.638Z,62.4286
2022-09-28T08:59:21.675Z,62
2022-09-28T09:00:21.705Z,61.7143
2022-09-28T09:01:21.814Z,61.7857
2022-09-28T09:02:21.796Z,61.1429
2022-09-28T09:03:21.801Z,61.2143
2022-09-28T09:04:21.832Z,60.3571
2022-09-28T09:05:21.865Z,60
2022-09-28T09:06:21.892Z,59.7143
2022-09-28T09:07:21.929Z,59.8571
2022-09-28T09:08:21.960Z,59.1429
2022-09-28T09:09:21.984Z,58.7857
2022-09-28T09:10:22.011Z,58.3571
2022-09-28T09:11:22.056Z,58.2143
2022-09-28T09:12:22.096Z,58.4286
2022-09-28T09:13:22.129Z,58.6429
2022-09-28T09:14:22.158Z,57.9286
2022-09-28T09:15:22.189Z,58
2022-09-28T09:16:22.293Z,58.4286
2022-09-28T09:17:22.255Z,58.7143
2022-09-28T09:18:22.287Z,58.6429
2022-09-28T09:19:22.314Z,57.4286
2022-09-28T09:20:22.343Z,57.3571
2022-09-28T09:21:22.390Z,57.7857
2022-09-28T09:22:22.409Z,57.6429
2022-09-28T09:23:22.439Z,56.4286
2022-09-28T09:24:22.473Z,55.7857
2022-09-28T09:25:22.495Z,55.1429
2022-09-28T09:26:25.976Z,56.0714
2022-09-28T09:27:22.556Z,55.9286
2022-09-28T09:28:22.588Z,56.2857
2022-09-28T09:29:22.620Z,55.9286
2022-09-28T09:30:22.654Z,55.8571
2022-09-28T09:31:23.035Z,56.5
2022-09-28T09:32:22.709Z,56.8571
2022-09-28T09:33:22.739Z,57.3571
2022-09-28T09:34:22.768Z,57.5
2022-09-28T09:35:26.672Z,57.9286
2022-09-28T09:36:22.836Z,57.5
2022-09-28T09:37:22.863Z,57.3571
2022-09-28T09:38:22.893Z,57.2857
2022-09-28T09:39:22.926Z,57
2022-09-28T09:40:23.004Z,57.1429
2022-09-28T09:41:22.986Z,56.4286
2022-09-28T09:42:23.025Z,56
2022-09-28T09:43:25.746Z,55.0714
2022-09-28T09:44:23.079Z,55.7143
2022-09-28T09:45:23.113Z,55.4286
2022-09-28T09:46:23.177Z,54.6429
2022-09-28T09:47:23.172Z,54.9286
2022-09-28T09:48:23.200Z,54.5714
2022-09-28T09:49:23.223Z,54.7143
2022-09-28T09:50:23.288Z,54.9286
2022-09-28T09:51:23.297Z,55.0714
2022-09-28T09:52:23.376Z,54.5714
2022-09-28T09:53:23.349Z,54.7857
2022-09-28T09:54:23.386Z,55
2022-09-28T09:55:28.996Z,55.2857
2022-09-28T09:56:23.445Z,55.4286
2022-09-28T09:57:23.473Z,55.2857
2022-09-28T09:58:23.512Z,55.5
2022-09-28T09:59:23.544Z,55.7143
2022-09-28T10:00:23.588Z,55.5714
2022-09-28T10:01:23.710Z,55.2143
2022-09-28T10:02:23.672Z,55.0714
2022-09-28T10:03:23.663Z,55.6429
2022-09-28T10:04:23.702Z,56.0714
2022-09-28T10:05:23.745Z,55.5
2022-09-28T10:06:23.770Z,54.7143
2022-09-28T10:07:23.801Z,53.9286
2022-09-28T10:08:23.831Z,53.9286
2022-09-28T10:09:23.857Z,54.9286
2022-09-28T10:10:23.892Z,55.2857
2022-09-28T10:11:23.924Z,55.0714
2022-09-28T10:12:23.951Z,54.9286
2022-09-28T10:13:23.999Z,54.5714
2022-09-28T10:14:24.023Z,55.4286
2022-09-28T10:15:24.051Z,55.7143
2022-09-28T10:16:24.127Z,55.3571
2022-09-28T10:17:24.118Z,54.1429
2022-09-28T10:18:24.152Z,55.0714
2022-09-28T10:19:24.185Z,54.6429
2022-09-28T10:20:24.212Z,54.9286
2022-09-28T10:21:24.244Z,54.6429
2022-09-28T10:22:24.279Z,54.6429
2022-09-28T10:23:24.308Z,54.4286
2022-09-28T10:24:24.340Z,54.7143
2022-09-28T10:25:24.377Z,55.5
2022-09-28T10:26:25.356Z,55.3571
2022-09-28T10:27:24.454Z,54.6429
2022-09-28T10:28:24.485Z,54.5714
2022-09-28T10:29:24.519Z,53.9286
2022-09-28T10:30:24.550Z,53.4286
2022-09-28T10:31:24.581Z,53.3571
2022-09-28T10:32:24.612Z,52.5
2022-09-28T10:33:24.664Z,53.2857
2022-09-28T10:34:24.679Z,53.7857
2022-09-28T10:35:24.718Z,53.5714
2022-09-28T10:36:24.740Z,53.5
2022-09-28T10:37:24.773Z,53
2022-09-28T10:38:24.805Z,53
2022-09-28T10:39:24.839Z,53.2857
2022-09-28T10:40:24.915Z,53
2022-09-28T10:41:24.900Z,52.7857
2022-09-28T10:42:24.932Z,53.1429
2022-09-28T10:43:24.984Z,54.1429
2022-09-28T10:44:24.998Z,54.7143
2022-09-28T10:45:25.034Z,53.5714
2022-09-28T10:46:25.161Z,53.5714
2022-09-28T10:47:25.103Z,53.1429
2022-09-28T10:48:25.139Z,53.5
2022-09-28T10:49:25.168Z,53.6429
2022-09-28T10:50:25.206Z,53.6429
2022-09-28T10:51:25.240Z,53.2143
2022-09-28T10:52:25.276Z,53.7143
2022-09-28T10:53:25.309Z,53.7143
2022-09-28T10:54:25.338Z,53.0714
2022-09-28T10:55:25.369Z,53.2857
2022-09-28T10:56:25.398Z,53.7143
2022-09-28T10:57:25.433Z,53.5
2022-09-28T10:58:25.467Z,53.5714
2022-09-28T10:59:25.497Z,53.3571
2022-09-28T11:00:25.535Z,53.2857
2022-09-28T11:01:25.639Z,53.6429
2022-09-28T11:02:25.664Z,53.5
2022-09-28T11:03:25.619Z,53.5
2022-09-28T11:04:25.646Z,53.6429
2022-09-28T11:05:25.683Z,53.7857
2022-09-28T11:06:25.719Z,53.8571
2022-09-28T11:07:25.749Z,54.3571
2022-09-28T11:08:25.778Z,54.7143
2022-09-28T11:09:29.819Z,55.3571
2022-09-28T11:10:25.847Z,55.2143
2022-09-28T11:11:25.878Z,54.9286
2022-09-28T11:12:25.917Z,54.8571
2022-09-28T11:13:25.952Z,54.9286
2022-09-28T11:14:25.980Z,55.1429
2022-09-28T11:15:26.015Z,55.2143
2022-09-28T11:16:26.142Z,55.1429
2022-09-28T11:17:26.082Z,55.0714
2022-09-28T11:18:26.119Z,55.2857
2022-09-28T11:19:26.149Z,55
2022-09-28T11:20:27.312Z,54.7857
2022-09-28T11:21:26.208Z,55
2022-09-28T11:22:26.265Z,55.3571
2022-09-28T11:23:26.288Z,55.3571
2022-09-28T11:24:26.649Z,55.6429
2022-09-28T11:25:26.350Z,56.1429
2022-09-28T11:26:26.387Z,56.4286
2022-09-28T11:27:26.417Z,56.5714
2022-09-28T11:28:26.453Z,56.5
2022-09-28T11:29:26.493Z,56.5
2022-09-28T11:30:26.530Z,56.8571
2022-09-28T11:31:26.558Z,56.9286
2022-09-28T11:32:26.588Z,56.8571
2022-09-28T11:33:26.625Z,57.2143
2022-09-28T11:34:36.453Z,57.4286
2022-09-28T11:35:26.693Z,57.9286
2022-09-28T11:36:26.732Z,57.9286
2022-09-28T11:37:26.764Z,57.4286
2022-09-28T11:38:26.806Z,57.5714
2022-09-28T11:39:26.832Z,57.6429
2022-09-28T11:40:26.938Z,57.7143
2022-09-28T11:41:26.889Z,57.7857
2022-09-28T11:42:26.917Z,57.7857
2022-09-28T11:43:26.948Z,57.8571
2022-09-28T11:44:29.450Z,57.5714
2022-09-28T11:45:27.018Z,57.5714
2022-09-28T11:46:27.100Z,58.0714
2022-09-28T11:47:27.089Z,58.6429
2022-09-28T11:48:27.121Z,58.5714
2022-09-28T11:49:27.148Z,59
2022-09-28T11:50:27.179Z,58.7857
2022-09-28T11:51:27.214Z,58.2143
2022-09-28T11:52:27.248Z,58.0714
2022-09-28T11:53:27.286Z,58.0714
2022-09-28T11:54:27.323Z,58.1429
2022-09-28T11:55:27.351Z,58.5
2022-09-28T11:56:27.387Z,58.5714
2022-09-28T11:57:27.425Z,58.3571
2022-09-28T11:58:27.455Z,58.7857
2022-09-28T11:59:27.510Z,58.5
2022-09-28T12:00:27.528Z,58.5714
2022-09-28T12:01:27.555Z,58.3571
2022-09-28T12:02:27.794Z,57.9286
2022-09-28T12:03:27.688Z,57.8571
2022-09-28T12:04:27.657Z,57.8571
2022-09-28T12:05:27.697Z,58.2857
2022-09-28T12:06:27.732Z,58.5714
2022-09-28T12:07:27.764Z,58.9286
2022-09-28T12:08:27.794Z,58.5
2022-09-28T12:09:27.887Z,58.5
2022-09-28T12:10:27.851Z,58.7143
2022-09-28T12:11:27.880Z,58.5714
2022-09-28T12:12:27.914Z,58.2143
2022-09-28T12:13:27.953Z,58.8571
2022-09-28T12:14:27.992Z,59.0714
2022-09-28T12:15:28.017Z,58.6429
2022-09-28T12:16:53.570Z,57.6429